Time;durP1;ratioP1;P1;durP2;ratioP2;P2;SDS_P1;SDS_P2;PMS_P1;PMS_P2;Temp;Humidity;BMP_temperature;BMP_pressure;BME280_temperature;BME280_humidity;BME280_pressure;Samples;Min_cycle;Max_cycle;Signal;HPM_P1;HPM_P2
2021/05/16 00:00:35;;;;;;;20.58;17.15;;;;;;;;;;4994711;28;20499;-65
2021/05/16 00:03:01;;;;;;;20.83;16.65;;;;;;;;;;4994734;28;20164;-66
2021/05/16 00:05:27;;;;;;;19.50;16.38;;;;;;;;;;4994522;28;20042;-65
2021/05/16 00:07:54;;;;;;;18.40;14.50;;;;;;;;;;4994356;28;20039;-66
2021/05/16 00:10:20;;;;;;;20.77;15.43;;;;;;;;;;4994497;28;20022;-67
2021/05/16 00:12:46;;;;;;;17.25;15.02;;;;;;;;;;4994636;28;20504;-65
2021/05/16 00:15:13;;;;;;;21.98;15.02;;;;;;;;;;4994705;28;20037;-65
2021/05/16 00:17:39;;;;;;;23.50;14.05;;;;;;;;;;4993963;28;20036;-66
2021/05/16 00:20:09;;;;;;;20.25;14.40;;;;;;;;;;4994016;28;20114;-65
2021/05/16 00:22:35;;;;;;;19.02;15.98;;;;;;;;;;4994250;28;20026;-65
2021/05/16 00:25:01;;;;;;;17.08;13.30;;;;;;;;;;4994175;28;20038;-66
2021/05/16 00:27:27;;;;;;;16.63;14.23;;;;;;;;;;4994465;28;20029;-66
2021/05/16 00:29:53;;;;;;;20.92;13.98;;;;;;;;;;4994306;28;20499;-67
2021/05/16 00:32:19;;;;;;;15.88;13.82;;;;;;;;;;4994325;28;20039;-66
2021/05/16 00:34:45;;;;;;;21.88;13.50;;;;;;;;;;4994199;28;20033;-67
2021/05/16 00:37:11;;;;;;;14.10;12.55;;;;;;;;;;4994019;28;20026;-66
2021/05/16 00:39:37;;;;;;;15.77;13.63;;;;;;;;;;4994140;28;20029;-66
2021/05/16 00:42:03;;;;;;;19.70;13.27;;;;;;;;;;4994139;28;20058;-67
2021/05/16 00:44:29;;;;;;;14.25;12.43;;;;;;;;;;4993986;28;20060;-66
2021/05/16 00:46:55;;;;;;;15.98;12.35;;;;;;;;;;4994371;28;20031;-66
2021/05/16 00:49:21;;;;;;;15.85;12.38;;;;;;;;;;4994077;28;20156;-66
2021/05/16 00:51:47;;;;;;;16.83;12.55;;;;;;;;;;4993789;28;20527;-66
2021/05/16 00:54:14;;;;;;;12.43;11.18;;;;;;;;;;4994216;28;20387;-66
2021/05/16 00:56:40;;;;;;;15.05;12.68;;;;;;;;;;4993715;28;20181;-66
2021/05/16 00:59:06;;;;;;;12.85;10.95;;;;;;;;;;4993916;28;20041;-66
2021/05/16 01:01:32;;;;;;;12.52;11.32;;;;;;;;;;4993844;28;20552;-68
2021/05/16 01:03:58;;;;;;;13.70;11.38;;;;;;;;;;4993878;28;20369;-68
2021/05/16 01:06:24;;;;;;;13.68;10.95;;;;;;;;;;4993514;28;20125;-67
2021/05/16 01:08:50;;;;;;;11.90;10.70;;;;;;;;;;4994101;28;20026;-67
2021/05/16 01:11:16;;;;;;;11.90;10.40;;;;;;;;;;4993840;28;20030;-68
2021/05/16 01:13:45;;;;;;;12.38;10.20;;;;;;;;;;4981969;28;20110;-68
2021/05/16 01:16:11;;;;;;;10.68;9.57;;;;;;;;;;4974413;28;20487;-68
2021/05/16 01:18:37;;;;;;;13.45;10.32;;;;;;;;;;4966296;28;20548;-67
2021/05/16 01:21:03;;;;;;;10.38;9.27;;;;;;;;;;4974150;28;20519;-68
2021/05/16 01:23:33;;;;;;;11.20;9.77;;;;;;;;;;4974496;28;20053;-68
2021/05/16 01:26:01;;;;;;;11.77;10.30;;;;;;;;;;4974402;28;20031;-68
2021/05/16 01:28:27;;;;;;;10.73;9.68;;;;;;;;;;4974580;28;20050;-68
2021/05/16 01:30:53;;;;;;;10.77;8.93;;;;;;;;;;4977062;28;20062;-68
2021/05/16 01:33:19;;;;;;;12.27;8.98;;;;;;;;;;4977990;28;20023;-68
2021/05/16 01:35:45;;;;;;;11.30;9.43;;;;;;;;;;4977887;28;20039;-67
2021/05/16 01:38:11;;;;;;;10.02;9.02;;;;;;;;;;4978380;28;20030;-68
2021/05/16 01:40:38;;;;;;;12.80;9.43;;;;;;;;;;4978026;28;20027;-68
2021/05/16 01:43:08;;;;;;;9.77;8.75;;;;;;;;;;4977889;28;20053;-68
2021/05/16 01:45:34;;;;;;;9.23;8.32;;;;;;;;;;4977900;28;20042;-68
2021/05/16 01:48:00;;;;;;;10.15;9.10;;;;;;;;;;4977699;28;20449;-68
2021/05/16 01:50:28;;;;;;;9.13;8.23;;;;;;;;;;4977579;28;20473;-68
2021/05/16 01:52:54;;;;;;;8.90;8.00;;;;;;;;;;4977991;28;20113;-68
2021/05/16 01:55:20;;;;;;;9.30;7.80;;;;;;;;;;4977722;28;20436;-68
2021/05/16 01:57:47;;;;;;;8.05;7.25;;;;;;;;;;4977641;28;20027;-67
2021/05/16 02:00:17;;;;;;;8.65;7.75;;;;;;;;;;4977751;28;20532;-67
2021/05/16 02:02:43;;;;;;;8.50;7.70;;;;;;;;;;4977133;28;20031;-68
2021/05/16 02:05:10;;;;;;;8.52;7.63;;;;;;;;;;4977480;28;20477;-68
2021/05/16 02:07:36;;;;;;;8.27;7.47;;;;;;;;;;4977309;28;20540;-68
2021/05/16 02:10:03;;;;;;;8.07;7.05;;;;;;;;;;4977564;28;20485;-67
2021/05/16 02:12:29;;;;;;;8.38;7.55;;;;;;;;;;4977106;28;20086;-67
2021/05/16 02:14:55;;;;;;;8.43;7.60;;;;;;;;;;4977472;28;20027;-67
2021/05/16 02:17:21;;;;;;;7.88;6.95;;;;;;;;;;4977185;28;20469;-67
2021/05/16 02:19:47;;;;;;;9.75;7.85;;;;;;;;;;4977462;28;20031;-68
2021/05/16 02:22:14;;;;;;;7.45;6.75;;;;;;;;;;4977271;28;20031;-68
2021/05/16 02:24:42;;;;;;;8.40;7.18;;;;;;;;;;4996558;28;20022;-68
2021/05/16 02:27:08;;;;;;;6.70;6.10;;;;;;;;;;4996772;28;20036;-68
2021/05/16 02:29:34;;;;;;;8.77;7.93;;;;;;;;;;4996272;28;20357;-68
2021/05/16 02:32:01;;;;;;;11.15;7.45;;;;;;;;;;4996231;28;20500;-68
2021/05/16 02:34:27;;;;;;;12.07;7.60;;;;;;;;;;4996649;28;20114;-68
2021/05/16 02:36:53;;;;;;;8.52;7.10;;;;;;;;;;4996566;28;20026;-67
2021/05/16 02:39:19;;;;;;;9.40;7.63;;;;;;;;;;4996132;28;20029;-68
2021/05/16 02:41:45;;;;;;;6.95;6.25;;;;;;;;;;4995540;28;20427;-68
2021/05/16 02:44:13;;;;;;;8.15;7.05;;;;;;;;;;4996224;28;20110;-67
2021/05/16 02:46:39;;;;;;;8.07;6.70;;;;;;;;;;4996036;28;20046;-69
2021/05/16 02:49:05;;;;;;;7.35;6.65;;;;;;;;;;4996486;28;20023;-67
2021/05/16 02:51:31;;;;;;;7.20;6.43;;;;;;;;;;4996145;28;20498;-68
2021/05/16 02:53:57;;;;;;;8.68;6.45;;;;;;;;;;4996171;28;20054;-67
2021/05/16 02:56:23;;;;;;;7.28;6.50;;;;;;;;;;4996084;28;20026;-68
2021/05/16 02:58:49;;;;;;;7.40;6.63;;;;;;;;;;4995999;28;20022;-68
2021/05/16 03:01:15;;;;;;;8.50;6.47;;;;;;;;;;4995799;28;20061;-68
2021/05/16 03:03:41;;;;;;;6.45;5.85;;;;;;;;;;4995683;28;20158;-67
2021/05/16 03:06:07;;;;;;;8.98;6.15;;;;;;;;;;4995881;28;20050;-67
2021/05/16 03:08:34;;;;;;;14.05;5.93;;;;;;;;;;4995904;28;20384;-67
2021/05/16 03:11:00;;;;;;;8.73;6.32;;;;;;;;;;4995658;28;20384;-68
2021/05/16 03:13:26;;;;;;;9.10;5.95;;;;;;;;;;4995728;28;20058;-68
2021/05/16 03:15:52;;;;;;;8.50;6.95;;;;;;;;;;4995088;28;20034;-68
2021/05/16 03:18:18;;;;;;;6.55;5.68;;;;;;;;;;4995092;28;20368;-67
2021/05/16 03:20:44;;;;;;;13.65;6.18;;;;;;;;;;4995644;28;20035;-68
2021/05/16 03:23:10;;;;;;;6.97;5.20;;;;;;;;;;4995691;28;20197;-68
2021/05/16 03:25:36;;;;;;;4.95;4.55;;;;;;;;;;4995550;28;20030;-68
2021/05/16 03:28:03;;;;;;;6.93;6.22;;;;;;;;;;4995546;28;20018;-67
2021/05/16 03:30:29;;;;;;;7.55;5.20;;;;;;;;;;4995280;28;20030;-68
2021/05/16 03:32:55;;;;;;;6.30;5.68;;;;;;;;;;4995256;28;20129;-68
2021/05/16 03:35:21;;;;;;;5.70;5.13;;;;;;;;;;4995702;28;20029;-67
2021/05/16 03:37:47;;;;;;;6.22;5.53;;;;;;;;;;4995093;28;20476;-68
2021/05/16 03:40:14;;;;;;;5.78;5.25;;;;;;;;;;4995585;28;20041;-67
2021/05/16 03:42:40;;;;;;;5.63;5.13;;;;;;;;;;4995043;28;20032;-68
2021/05/16 03:45:06;;;;;;;8.18;6.30;;;;;;;;;;4994848;28;20033;-68
2021/05/16 03:47:33;;;;;;;6.95;5.78;;;;;;;;;;4995159;28;20034;-68
2021/05/16 03:49:59;;;;;;;6.30;5.70;;;;;;;;;;4995058;28;20026;-68
2021/05/16 03:52:25;;;;;;;5.10;4.63;;;;;;;;;;4994697;28;20472;-67
2021/05/16 03:54:51;;;;;;;5.72;5.22;;;;;;;;;;4995054;28;20034;-67
2021/05/16 03:57:21;;;;;;;14.32;6.25;;;;;;;;;;4994700;28;20172;-68
2021/05/16 03:59:47;;;;;;;6.00;5.07;;;;;;;;;;4994608;28;20113;-67
2021/05/16 04:02:13;;;;;;;9.32;5.80;;;;;;;;;;4995260;28;20026;-67
2021/05/16 04:04:39;;;;;;;5.88;5.28;;;;;;;;;;4994860;28;20026;-67
2021/05/16 04:07:06;;;;;;;5.28;4.78;;;;;;;;;;4994710;28;20023;-67
2021/05/16 04:09:32;;;;;;;6.30;4.97;;;;;;;;;;4994720;28;20019;-67
2021/05/16 04:11:58;;;;;;;5.18;4.78;;;;;;;;;;4994675;28;20475;-67
2021/05/16 04:14:25;;;;;;;6.63;5.78;;;;;;;;;;4994666;28;20137;-68
2021/05/16 04:16:51;;;;;;;6.10;5.25;;;;;;;;;;4994707;28;20559;-67
2021/05/16 04:19:17;;;;;;;6.82;5.65;;;;;;;;;;4994645;28;20388;-68
2021/05/16 04:21:43;;;;;;;7.47;4.75;;;;;;;;;;4994821;28;20042;-67
2021/05/16 04:24:10;;;;;;;8.93;5.13;;;;;;;;;;4994538;28;20034;-67
2021/05/16 04:26:36;;;;;;;5.22;4.57;;;;;;;;;;4994325;28;20547;-67
2021/05/16 04:29:02;;;;;;;6.55;5.65;;;;;;;;;;4994162;28;20118;-68
2021/05/16 04:31:28;;;;;;;6.20;5.60;;;;;;;;;;4994509;28;20563;-68
2021/05/16 04:33:54;;;;;;;7.43;5.07;;;;;;;;;;4994141;28;20345;-67
2021/05/16 04:36:20;;;;;;;5.25;4.80;;;;;;;;;;4994287;28;20033;-68
2021/05/16 04:38:48;;;;;;;5.65;5.05;;;;;;;;;;4994148;28;20022;-67
2021/05/16 04:41:14;;;;;;;5.82;4.78;;;;;;;;;;4994194;28;20034;-68
2021/05/16 04:43:40;;;;;;;6.63;4.80;;;;;;;;;;4993940;28;20033;-68
2021/05/16 04:46:06;;;;;;;5.75;5.10;;;;;;;;;;4994075;28;20074;-68
2021/05/16 04:48:32;;;;;;;5.50;5.00;;;;;;;;;;4994516;28;20030;-68
2021/05/16 04:50:58;;;;;;;5.65;5.15;;;;;;;;;;4994051;28;20494;-68
2021/05/16 04:53:28;;;;;;;5.43;4.93;;;;;;;;;;4993865;28;20026;-68
2021/05/16 04:55:54;;;;;;;5.72;5.22;;;;;;;;;;4994081;28;20026;-69
2021/05/16 04:58:20;;;;;;;8.77;5.15;;;;;;;;;;4993438;28;20023;-69
2021/05/16 05:00:47;;;;;;;6.30;4.20;;;;;;;;;;4990405;28;20033;-69
2021/05/16 05:03:13;;;;;;;5.90;4.47;;;;;;;;;;4992851;28;20027;-69
2021/05/16 05:05:39;;;;;;;4.80;4.30;;;;;;;;;;4995205;28;20046;-69
2021/05/16 05:08:05;;;;;;;4.68;4.20;;;;;;;;;;4996751;28;20026;-69
2021/05/16 05:10:31;;;;;;;8.93;5.30;;;;;;;;;;4996850;28;20427;-69
2021/05/16 05:12:57;;;;;;;5.00;3.70;;;;;;;;;;4996345;28;20046;-70
2021/05/16 05:15:23;;;;;;;5.30;4.80;;;;;;;;;;4996442;28;20038;-69
2021/05/16 05:17:49;;;;;;;5.47;4.65;;;;;;;;;;4996561;28;20031;-69
2021/05/16 05:20:15;;;;;;;6.75;4.07;;;;;;;;;;4996664;28;20428;-68
2021/05/16 05:22:41;;;;;;;5.20;4.65;;;;;;;;;;4996572;28;20022;-69
2021/05/16 05:25:08;;;;;;;6.53;4.95;;;;;;;;;;4994986;28;20423;-69
2021/05/16 05:27:34;;;;;;;5.85;4.22;;;;;;;;;;5007030;28;20495;-71
2021/05/16 05:30:00;;;;;;;4.97;3.90;;;;;;;;;;5015747;28;20537;-69
2021/05/16 05:32:26;;;;;;;5.03;3.55;;;;;;;;;;5007477;28;20022;-70
2021/05/16 05:34:52;;;;;;;5.00;3.90;;;;;;;;;;5015965;28;20032;-68
2021/05/16 05:37:18;;;;;;;4.47;4.00;;;;;;;;;;5014726;28;20026;-71
2021/05/16 05:39:44;;;;;;;6.55;4.80;;;;;;;;;;5014926;28;20099;-69
2021/05/16 05:42:11;;;;;;;7.00;3.92;;;;;;;;;;5015733;28;20034;-70
2021/05/16 05:44:39;;;;;;;4.63;4.22;;;;;;;;;;5016047;28;20133;-69
2021/05/16 05:47:06;;;;;;;6.43;3.92;;;;;;;;;;5010054;28;20168;-70
2021/05/16 05:49:32;;;;;;;4.35;3.95;;;;;;;;;;5013663;28;20033;-70
2021/05/16 05:52:00;;;;;;;4.68;3.63;;;;;;;;;;5016060;28;20088;-70
2021/05/16 05:54:26;;;;;;;3.65;3.30;;;;;;;;;;4998722;28;20033;-70
2021/05/16 05:56:52;;;;;;;3.60;3.30;;;;;;;;;;5015108;28;20101;-70
2021/05/16 05:59:18;;;;;;;3.75;3.28;;;;;;;;;;5013489;28;20025;-69
2021/05/16 06:01:44;;;;;;;3.90;3.17;;;;;;;;;;5015633;28;20026;-69
2021/05/16 06:04:10;;;;;;;3.17;2.88;;;;;;;;;;5014663;28;20458;-70
2021/05/16 06:06:36;;;;;;;11.15;4.10;;;;;;;;;;5015382;28;20048;-69
2021/05/16 06:09:03;;;;;;;4.28;3.78;;;;;;;;;;5013678;28;20030;-68
2021/05/16 06:11:29;;;;;;;3.63;3.17;;;;;;;;;;4999163;28;20388;-69
2021/05/16 06:13:55;;;;;;;4.28;3.65;;;;;;;;;;4995343;28;20151;-69
2021/05/16 06:16:22;;;;;;;3.50;3.20;;;;;;;;;;4998976;28;20022;-69
2021/05/16 06:18:49;;;;;;;4.00;2.92;;;;;;;;;;5000990;28;20086;-68
2021/05/16 06:21:15;;;;;;;4.20;3.13;;;;;;;;;;5012724;28;20037;-69
2021/05/16 06:23:49;;;;;;;3.25;2.83;;;;;;;;;;5014746;28;20033;-68
2021/05/16 06:26:15;;;;;;;3.50;3.20;;;;;;;;;;5014497;28;20403;-68
2021/05/16 06:28:41;;;;;;;5.03;3.80;;;;;;;;;;5006195;28;20026;-68
2021/05/16 06:31:07;;;;;;;3.28;2.85;;;;;;;;;;5006624;28;20029;-69
2021/05/16 06:33:33;;;;;;;3.40;3.08;;;;;;;;;;5014702;28;20776;-68
2021/05/16 06:35:59;;;;;;;4.40;3.38;;;;;;;;;;5014345;28;20030;-68
2021/05/16 06:38:25;;;;;;;9.85;3.17;;;;;;;;;;5005192;28;20030;-68
2021/05/16 06:40:51;;;;;;;6.30;2.80;;;;;;;;;;4994683;28;20537;-69
2021/05/16 06:43:18;;;;;;;7.43;3.20;;;;;;;;;;4996420;28;20026;-69
2021/05/16 06:45:44;;;;;;;5.72;3.20;;;;;;;;;;4995746;28;20038;-69
2021/05/16 06:48:11;;;;;;;6.72;3.08;;;;;;;;;;4996008;28;20113;-69
2021/05/16 06:50:37;;;;;;;5.10;2.60;;;;;;;;;;4995806;28;20062;-69
2021/05/16 06:53:03;;;;;;;6.28;3.30;;;;;;;;;;4996091;28;20030;-69
2021/05/16 06:55:29;;;;;;;5.95;3.13;;;;;;;;;;4995293;28;20508;-69
2021/05/16 06:57:55;;;;;;;15.32;4.55;;;;;;;;;;4995994;28;20029;-69
2021/05/16 07:00:21;;;;;;;4.60;3.65;;;;;;;;;;4995750;28;20031;-69
2021/05/16 07:02:47;;;;;;;3.70;3.30;;;;;;;;;;4995811;28;20026;-69
2021/05/16 07:05:13;;;;;;;4.53;3.03;;;;;;;;;;4994808;28;20046;-69
2021/05/16 07:07:40;;;;;;;9.80;3.00;;;;;;;;;;4995593;28;20034;-68
2021/05/16 07:10:07;;;;;;;7.00;2.60;;;;;;;;;;4995172;28;20022;-69
2021/05/16 07:12:33;;;;;;;5.93;3.05;;;;;;;;;;4995545;28;20062;-69
2021/05/16 07:14:59;;;;;;;28.00;3.20;;;;;;;;;;4991716;28;20022;-71
2021/05/16 07:17:25;;;;;;;4.78;2.95;;;;;;;;;;4994336;28;20559;-71
2021/05/16 07:19:51;;;;;;;5.53;2.45;;;;;;;;;;4994307;28;20034;-71
2021/05/16 07:22:17;;;;;;;3.80;2.70;;;;;;;;;;4994407;28;20042;-68
2021/05/16 07:24:43;;;;;;;19.55;3.28;;;;;;;;;;4994312;28;20030;-69
2021/05/16 07:27:09;;;;;;;4.65;2.83;;;;;;;;;;4993940;28;20027;-69
2021/05/16 07:29:35;;;;;;;3.72;2.75;;;;;;;;;;4991818;28;20030;-69
2021/05/16 07:32:01;;;;;;;5.45;2.65;;;;;;;;;;4991841;28;20026;-69
2021/05/16 07:34:27;;;;;;;4.70;2.78;;;;;;;;;;4991943;28;20037;-71
2021/05/16 07:36:53;;;;;;;6.65;2.80;;;;;;;;;;4993448;28;20503;-69
2021/05/16 07:39:19;;;;;;;10.60;2.33;;;;;;;;;;5005066;28;20048;-70
2021/05/16 07:41:45;;;;;;;4.38;2.30;;;;;;;;;;5013814;28;20461;-70
2021/05/16 07:44:11;;;;;;;2.78;2.08;;;;;;;;;;5012101;28;20369;-69
2021/05/16 07:46:37;;;;;;;2.80;2.13;;;;;;;;;;4996619;28;20494;-70
2021/05/16 07:49:04;;;;;;;5.90;2.72;;;;;;;;;;5000286;28;20026;-69
2021/05/16 07:51:30;;;;;;;2.10;1.95;;;;;;;;;;4993364;28;20432;-70
2021/05/16 07:53:56;;;;;;;3.00;2.22;;;;;;;;;;4992919;28;20027;-70
2021/05/16 07:56:23;;;;;;;2.40;2.05;;;;;;;;;;4993645;28;20113;-69
2021/05/16 07:58:49;;;;;;;2.33;1.85;;;;;;;;;;4997688;28;20028;-70
2021/05/16 08:01:15;;;;;;;3.30;2.22;;;;;;;;;;5012170;28;20435;-70
2021/05/16 08:03:41;;;;;;;2.22;2.00;;;;;;;;;;5012797;28;20022;-69
2021/05/16 08:06:07;;;;;;;5.35;2.55;;;;;;;;;;5012697;28;20045;-71
2021/05/16 08:08:34;;;;;;;2.28;2.08;;;;;;;;;;5011238;28;20091;-70
2021/05/16 08:11:00;;;;;;;2.83;1.88;;;;;;;;;;5013080;28;20033;-70
2021/05/16 08:13:26;;;;;;;4.22;2.13;;;;;;;;;;5012634;28;20053;-72
2021/05/16 08:15:52;;;;;;;1.70;1.60;;;;;;;;;;5012807;28;20030;-72
2021/05/16 08:18:18;;;;;;;3.08;1.77;;;;;;;;;;5007139;28;20060;-71
2021/05/16 08:20:44;;;;;;;2.15;1.73;;;;;;;;;;4992937;28;20436;-72
2021/05/16 08:23:10;;;;;;;2.83;1.70;;;;;;;;;;4995713;28;20053;-72
2021/05/16 08:25:38;;;;;;;1.70;1.60;;;;;;;;;;5012824;28;20088;-72
2021/05/16 08:28:05;;;;;;;3.60;2.20;;;;;;;;;;5011078;28;20112;-71
2021/05/16 08:30:31;;;;;;;3.05;1.73;;;;;;;;;;5011881;28;20450;-70
2021/05/16 08:32:57;;;;;;;13.85;1.70;;;;;;;;;;4996633;28;20030;-73
2021/05/16 08:35:23;;;;;;;1.85;1.67;;;;;;;;;;4999485;28;20172;-73
2021/05/16 08:37:49;;;;;;;2.70;1.63;;;;;;;;;;4991931;28;20030;-74
2021/05/16 08:40:16;;;;;;;2.13;1.92;;;;;;;;;;4990619;28;20109;-71
2021/05/16 08:42:43;;;;;;;6.38;2.28;;;;;;;;;;4996422;28;20107;-70
2021/05/16 08:45:10;;;;;;;7.03;1.80;;;;;;;;;;5012709;28;20042;-71
2021/05/16 08:47:37;;;;;;;3.92;2.08;;;;;;;;;;5012113;28;20391;-71
2021/05/16 08:50:04;;;;;;;2.65;2.05;;;;;;;;;;5009366;28;20037;-72
2021/05/16 08:52:30;;;;;;;2.88;1.90;;;;;;;;;;5006715;28;20021;-69
2021/05/16 08:54:56;;;;;;;2.85;1.85;;;;;;;;;;5012461;28;20050;-70
2021/05/16 08:57:23;;;;;;;1.95;1.75;;;;;;;;;;5012027;28;20068;-71
2021/05/16 09:00:09;;;;;;;9.27;2.03;;;;;;;;;;5010293;28;20137;-70
2021/05/16 09:02:36;;;;;;;2.10;1.90;;;;;;;;;;4980861;28;20073;-71
2021/05/16 09:05:03;;;;;;;2.42;2.00;;;;;;;;;;4993406;28;20473;-72
2021/05/16 09:07:29;;;;;;;3.30;1.85;;;;;;;;;;5012096;28;20093;-73
2021/05/16 09:09:55;;;;;;;1.95;1.85;;;;;;;;;;4993633;28;20022;-72
2021/05/16 09:12:22;;;;;;;3.97;1.90;;;;;;;;;;5000683;28;20502;-74
2021/05/16 09:14:52;;;;;;;2.42;2.00;;;;;;;;;;5012128;28;20030;-73
2021/05/16 09:17:34;;;;;;;3.78;2.00;;;;;;;;;;5012089;28;20108;-74
2021/05/16 09:20:02;;;;;;;6.43;2.35;;;;;;;;;;4996547;28;20034;-71
2021/05/16 09:22:44;;;;;;;14.70;2.47;;;;;;;;;;4993597;28;20026;-70
2021/05/16 09:25:11;;;;;;;5.82;2.67;;;;;;;;;;4993750;28;20042;-70
2021/05/16 09:27:37;;;;;;;13.38;2.75;;;;;;;;;;4993980;28;20034;-70
2021/05/16 09:30:23;;;;;;;4.57;3.05;;;;;;;;;;4991379;28;20038;-70
2021/05/16 09:32:53;;;;;;;22.90;7.75;;;;;;;;;;4979731;28;20030;-69
2021/05/16 09:35:19;;;;;;;51.70;13.02;;;;;;;;;;4993359;28;20030;-71
2021/05/16 09:38:05;;;;;;;56.67;15.70;;;;;;;;;;4992062;28;20023;-72
2021/05/16 09:40:33;;;;;;;64.28;17.80;;;;;;;;;;4978494;28;20037;-69
2021/05/16 09:43:06;;;;;;;32.78;11.68;;;;;;;;;;4993368;28;20037;-73
2021/05/16 09:45:49;;;;;;;30.02;8.80;;;;;;;;;;4993673;28;20034;-72
2021/05/16 09:48:16;;;;;;;28.77;7.18;;;;;;;;;;4993114;28;20034;-72
2021/05/16 09:50:43;;;;;;;16.65;6.22;;;;;;;;;;4994309;28;20032;-73
2021/05/16 09:53:09;;;;;;;18.85;5.50;;;;;;;;;;4996749;28;20045;-74
2021/05/16 09:55:37;;;;;;;8.70;3.60;;;;;;;;;;4996944;28;20044;-72
2021/05/16 09:58:03;;;;;;;7.03;3.85;;;;;;;;;;4996246;28;20026;-70
2021/05/16 10:00:29;;;;;;;11.57;4.72;;;;;;;;;;4995346;28;20388;-71
2021/05/16 10:02:55;;;;;;;17.67;5.38;;;;;;;;;;4995369;28;20072;-71
2021/05/16 10:05:21;;;;;;;15.70;6.93;;;;;;;;;;4995202;28;20037;-70
2021/05/16 10:07:48;;;;;;;18.23;6.47;;;;;;;;;;4994331;28;20018;-71
2021/05/16 10:10:14;;;;;;;15.07;5.93;;;;;;;;;;4994657;28;20065;-69
2021/05/16 10:12:40;;;;;;;16.70;5.90;;;;;;;;;;4991841;28;20582;-70
2021/05/16 10:15:09;;;;;;;21.77;6.80;;;;;;;;;;4995671;28;20521;-68
2021/05/16 10:17:36;;;;;;;12.32;4.88;;;;;;;;;;4995052;28;20037;-69
2021/05/16 10:20:04;;;;;;;10.05;5.05;;;;;;;;;;4994308;28;20465;-69
2021/05/16 10:22:30;;;;;;;11.98;5.13;;;;;;;;;;4994650;28;20239;-69
2021/05/16 10:24:57;;;;;;;19.83;6.15;;;;;;;;;;4994646;28;20022;-69
2021/05/16 10:27:29;;;;;;;12.00;4.78;;;;;;;;;;4994586;28;20050;-69
2021/05/16 10:29:56;;;;;;;16.50;5.57;;;;;;;;;;4994321;28;20026;-69
2021/05/16 10:32:26;;;;;;;12.52;4.85;;;;;;;;;;4994637;28;20026;-70
2021/05/16 10:34:59;;;;;;;13.02;4.85;;;;;;;;;;4994624;28;20022;-70
2021/05/16 10:37:46;;;;;;;10.38;5.07;;;;;;;;;;4992725;28;20022;-70
2021/05/16 10:40:32;;;;;;;17.27;4.53;;;;;;;;;;4979805;28;20010;-71
2021/05/16 10:42:59;;;;;;;12.77;5.75;;;;;;;;;;4980126;28;20041;-70
2021/05/16 10:45:40;;;;;;;11.38;5.07;;;;;;;;;;4994257;28;20062;-71
2021/05/16 10:48:19;;;;;;;11.52;5.03;;;;;;;;;;4991930;28;20058;-70
2021/05/16 10:50:48;;;;;;;9.15;3.92;;;;;;;;;;4992131;28;20077;-70
2021/05/16 10:53:21;;;;;;;21.77;4.95;;;;;;;;;;4994506;28;20488;-68
2021/05/16 10:55:49;;;;;;;10.13;5.60;;;;;;;;;;4995493;28;20030;-70
2021/05/16 10:58:35;;;;;;;13.88;5.45;;;;;;;;;;4995282;28;20057;-69
2021/05/16 11:01:01;;;;;;;8.32;4.30;;;;;;;;;;4981936;28;20026;-70
2021/05/16 11:03:41;;;;;;;13.10;5.38;;;;;;;;;;4994843;28;20027;-69
2021/05/16 11:06:07;;;;;;;14.93;4.55;;;;;;;;;;4995207;28;20042;-69
2021/05/16 11:08:53;;;;;;;10.25;3.88;;;;;;;;;;4995140;28;20472;-70
2021/05/16 11:11:29;;;;;;;12.88;4.68;;;;;;;;;;4981025;28;20028;-69
2021/05/16 11:13:55;;;;;;;6.10;3.58;;;;;;;;;;4995061;28;20050;-70
2021/05/16 11:16:21;;;;;;;4.82;3.05;;;;;;;;;;4994371;28;20105;-70
2021/05/16 11:18:47;;;;;;;9.60;3.90;;;;;;;;;;4994982;28;20027;-70
2021/05/16 11:21:13;;;;;;;14.27;4.60;;;;;;;;;;4992893;28;20477;-71
2021/05/16 11:23:40;;;;;;;6.88;3.65;;;;;;;;;;4993871;28;20022;-69
2021/05/16 11:26:09;;;;;;;8.48;3.97;;;;;;;;;;4994606;28;20117;-70
2021/05/16 11:28:36;;;;;;;7.22;3.80;;;;;;;;;;4994738;28;20101;-70
2021/05/16 11:31:20;;;;;;;5.38;3.53;;;;;;;;;;4995133;28;20376;-69
2021/05/16 11:33:48;;;;;;;7.72;4.22;;;;;;;;;;4995018;28;20033;-69
2021/05/16 11:36:14;;;;;;;10.18;3.70;;;;;;;;;;4994815;28;20034;-69
2021/05/16 11:38:41;;;;;;;9.50;3.90;;;;;;;;;;4994712;28;20373;-69
2021/05/16 11:41:08;;;;;;;6.50;3.53;;;;;;;;;;4995105;28;20061;-69
2021/05/16 11:43:35;;;;;;;10.93;3.75;;;;;;;;;;4994759;28;20026;-69
2021/05/16 11:46:01;;;;;;;5.25;3.30;;;;;;;;;;4994291;28;20042;-70
2021/05/16 11:48:30;;;;;;;6.00;3.60;;;;;;;;;;4994133;28;20054;-69
2021/05/16 11:51:04;;;;;;;5.82;3.50;;;;;;;;;;4994750;28;20376;-69
2021/05/16 11:53:31;;;;;;;8.35;3.70;;;;;;;;;;4994987;28;20058;-69
2021/05/16 11:56:17;;;;;;;6.13;3.33;;;;;;;;;;4994061;28;20035;-69
2021/05/16 11:58:47;;;;;;;4.47;2.83;;;;;;;;;;4980519;28;20108;-70
2021/05/16 12:01:13;;;;;;;4.55;3.47;;;;;;;;;;4994301;28;20030;-70
2021/05/16 12:03:59;;;;;;;4.85;2.92;;;;;;;;;;4993466;28;20027;-69
2021/05/16 12:06:26;;;;;;;3.95;2.67;;;;;;;;;;4979948;28;20068;-69
2021/05/16 12:09:09;;;;;;;8.43;3.55;;;;;;;;;;4993925;28;20032;-68
2021/05/16 12:11:36;;;;;;;6.82;3.15;;;;;;;;;;4991974;28;20062;-70
2021/05/16 12:14:18;;;;;;;6.85;3.42;;;;;;;;;;4993061;28;20082;-69
2021/05/16 12:17:00;;;;;;;4.22;2.78;;;;;;;;;;4993992;28;20069;-70
2021/05/16 12:19:27;;;;;;;3.50;2.60;;;;;;;;;;4995023;28;20129;-70
2021/05/16 12:21:54;;;;;;;6.30;2.50;;;;;;;;;;4993663;28;20026;-69
2021/05/16 12:24:21;;;;;;;3.28;2.35;;;;;;;;;;4993597;28;20518;-69
2021/05/16 12:26:47;;;;;;;8.45;2.28;;;;;;;;;;4994057;28;20065;-69
2021/05/16 12:29:13;;;;;;;3.28;2.50;;;;;;;;;;4994458;28;20026;-70
2021/05/16 12:31:39;;;;;;;3.45;2.42;;;;;;;;;;4992635;28;20034;-69
2021/05/16 12:34:06;;;;;;;7.22;2.38;;;;;;;;;;4993874;28;20073;-70
2021/05/16 12:36:53;;;;;;;7.53;2.42;;;;;;;;;;4994564;28;20027;-70
2021/05/16 12:39:39;;;;;;;2.50;2.30;;;;;;;;;;4980389;28;20019;-69
2021/05/16 12:42:25;;;;;;;2.80;2.15;;;;;;;;;;4985376;28;20041;-69
2021/05/16 12:44:52;;;;;;;4.60;2.50;;;;;;;;;;4987568;28;20117;-69
2021/05/16 12:47:22;;;;;;;2.42;2.13;;;;;;;;;;4994199;28;20487;-70
2021/05/16 12:49:48;;;;;;;4.70;2.40;;;;;;;;;;4993955;28;20034;-69
2021/05/16 12:52:23;;;;;;;4.97;2.70;;;;;;;;;;4991625;28;20321;-69
2021/05/16 12:54:49;;;;;;;3.05;2.45;;;;;;;;;;4994210;28;20386;-69
2021/05/16 12:57:22;;;;;;;3.75;2.40;;;;;;;;;;4993929;28;20065;-69
2021/05/16 12:59:48;;;;;;;5.53;2.45;;;;;;;;;;4993733;28;20026;-71
2021/05/16 13:02:15;;;;;;;4.82;2.38;;;;;;;;;;4992465;28;20073;-70
2021/05/16 13:04:45;;;;;;;8.60;1.95;;;;;;;;;;4994057;28;20054;-70
2021/05/16 13:07:11;;;;;;;3.38;2.20;;;;;;;;;;4993119;28;20034;-71
2021/05/16 13:09:37;;;;;;;3.35;2.22;;;;;;;;;;4993753;28;20033;-70
2021/05/16 13:12:03;;;;;;;3.15;2.28;;;;;;;;;;4992435;28;20084;-71
2021/05/16 13:14:30;;;;;;;2.83;2.33;;;;;;;;;;4993861;28;20424;-70
2021/05/16 13:17:07;;;;;;;5.93;2.05;;;;;;;;;;4994192;28;20026;-71
2021/05/16 13:19:34;;;;;;;2.70;2.50;;;;;;;;;;4993747;28;20026;-71
2021/05/16 13:22:00;;;;;;;3.38;2.20;;;;;;;;;;4992334;28;20450;-70
2021/05/16 13:24:26;;;;;;;4.57;2.60;;;;;;;;;;4994235;28;20099;-70
2021/05/16 13:26:53;;;;;;;3.58;2.33;;;;;;;;;;4997002;28;20113;-71
2021/05/16 13:29:22;;;;;;;6.03;2.20;;;;;;;;;;4997891;28;20026;-69
2021/05/16 13:31:48;;;;;;;3.45;1.77;;;;;;;;;;4996070;28;20495;-70
2021/05/16 13:34:16;;;;;;;2.15;1.95;;;;;;;;;;4997102;28;20105;-70
2021/05/16 13:36:42;;;;;;;2.85;2.22;;;;;;;;;;4997122;28;20471;-70
2021/05/16 13:39:08;;;;;;;2.35;1.98;;;;;;;;;;4997343;28;20031;-70
2021/05/16 13:41:34;;;;;;;2.50;1.95;;;;;;;;;;4996223;28;20030;-71
2021/05/16 13:44:00;;;;;;;1.80;1.70;;;;;;;;;;4997277;28;20033;-69
2021/05/16 13:46:26;;;;;;;2.20;1.98;;;;;;;;;;4997711;28;20042;-70
2021/05/16 13:48:52;;;;;;;2.25;2.05;;;;;;;;;;4997601;28;20054;-70
2021/05/16 13:51:18;;;;;;;1.98;1.50;;;;;;;;;;4995843;28;20043;-74
2021/05/16 13:53:44;;;;;;;4.20;2.38;;;;;;;;;;4996301;28;20113;-73
2021/05/16 13:56:11;;;;;;;7.90;2.53;;;;;;;;;;4993325;28;20027;-72
2021/05/16 13:58:37;;;;;;;2.20;1.80;;;;;;;;;;4996012;28;20065;-73
2021/05/16 14:01:03;;;;;;;4.25;2.72;;;;;;;;;;4996499;28;20022;-77
2021/05/16 14:03:29;;;;;;;3.92;2.30;;;;;;;;;;4996111;28;20105;-78
2021/05/16 14:05:55;;;;;;;13.02;2.85;;;;;;;;;;4995380;28;20050;-77
2021/05/16 14:08:21;;;;;;;6.55;2.53;;;;;;;;;;4995228;28;20068;-77
2021/05/16 14:10:47;;;;;;;2.95;2.63;;;;;;;;;;4994587;28;20030;-75
2021/05/16 14:13:13;;;;;;;5.05;2.55;;;;;;;;;;4992541;28;20046;-79
2021/05/16 14:15:39;;;;;;;6.45;2.85;;;;;;;;;;4994534;28;20027;-75
2021/05/16 14:18:06;;;;;;;3.72;2.05;;;;;;;;;;4995329;28;20031;-74
2021/05/16 14:20:32;;;;;;;2.60;2.10;;;;;;;;;;4994309;28;20022;-75
2021/05/16 14:22:58;;;;;;;4.15;2.50;;;;;;;;;;4995173;28;20029;-74
2021/05/16 14:25:24;;;;;;;4.00;2.20;;;;;;;;;;4994578;28;20464;-74
2021/05/16 14:27:50;;;;;;;2.72;2.03;;;;;;;;;;4995168;28;20104;-75
2021/05/16 14:30:16;;;;;;;2.65;2.13;;;;;;;;;;4994837;28;20375;-75
2021/05/16 14:32:42;;;;;;;5.18;3.15;;;;;;;;;;4994840;28;20484;-75
2021/05/16 14:35:09;;;;;;;3.05;2.08;;;;;;;;;;4995645;28;20022;-79
2021/05/16 14:37:35;;;;;;;8.52;2.50;;;;;;;;;;4993596;28;20038;-77
2021/05/16 14:40:01;;;;;;;3.33;2.47;;;;;;;;;;4994881;28;20045;-79